Time;durP1;ratioP1;P1;durP2;ratioP2;P2;SDS_P1;SDS_P2;PMS_P1;PMS_P2;Temp;Humidity;BMP_temperature;BMP_pressure;BME280_temperature;BME280_humidity;BME280_pressure;Samples;Min_cycle;Max_cycle;Signal;HPM_P1;HPM_P2
2023/01/08 00:01:25;;;;;;;10.52;2.38;;;8.70;99.90;;;7.93;100.00;100050.88;4202342;28;20047;-72
2023/01/08 00:03:26;;;;;;;10.32;1.85;;;8.80;99.90;;;7.95;100.00;100053.34;4183885;28;20079;-72
2023/01/08 00:05:27;;;;;;;8.43;1.70;;;8.90;99.90;;;8.04;100.00;100058.47;4184912;28;20021;-74
2023/01/08 00:07:28;;;;;;;9.85;1.88;;;8.90;99.90;;;8.12;100.00;100073.47;4203274;28;20027;-74
2023/01/08 00:09:29;;;;;;;16.50;3.25;;;9.00;99.90;;;8.10;100.00;100084.13;4202554;28;20099;-74
2023/01/08 00:11:30;;;;;;;18.88;6.07;;;9.00;99.90;;;8.13;100.00;100088.25;4185309;28;20025;-74
2023/01/08 00:13:31;;;;;;;17.65;2.90;;;9.00;99.90;;;8.17;100.00;100085.16;4202936;28;20099;-74
2023/01/08 00:15:35;;;;;;;15.80;3.10;;;9.10;99.90;;;8.20;100.00;100069.09;4203088;28;20050;-74
2023/01/08 00:17:35;;;;;;;12.55;2.00;;;9.10;99.90;;;8.24;100.00;100064.34;4168622;28;20083;-74
2023/01/08 00:19:36;;;;;;;7.05;1.60;;;9.10;99.90;;;8.20;100.00;100073.50;4202654;28;20472;-74
2023/01/08 00:21:38;;;;;;;16.17;2.20;;;9.10;99.90;;;8.18;100.00;100073.66;4185089;28;20032;-74
2023/01/08 00:23:39;;;;;;;8.30;1.50;;;9.10;99.90;;;8.24;100.00;100061.72;4202464;28;20096;-74
2023/01/08 00:25:40;;;;;;;8.75;1.42;;;9.10;99.90;;;8.23;100.00;100067.94;4184902;28;20055;-74
2023/01/08 00:27:41;;;;;;;3.92;1.15;;;9.10;99.90;;;8.18;100.00;100057.88;4202792;28;20024;-74
2023/01/08 00:29:42;;;;;;;9.50;1.67;;;9.10;99.90;;;8.13;100.00;100046.22;4184502;28;20462;-74
2023/01/08 00:31:44;;;;;;;7.50;1.35;;;9.00;99.90;;;8.02;100.00;100039.44;4202807;28;20021;-74
2023/01/08 00:33:45;;;;;;;6.57;1.35;;;9.00;99.90;;;7.99;100.00;100046.81;4194452;28;20431;-74
2023/01/08 00:35:46;;;;;;;6.47;1.20;;;8.90;99.90;;;7.97;100.00;100046.16;4202444;28;20024;-74
2023/01/08 00:37:49;;;;;;;6.60;1.30;;;8.90;99.90;;;7.88;100.00;100053.16;4184765;28;20103;-73
2023/01/08 00:39:50;;;;;;;9.88;2.28;;;8.80;99.90;;;7.76;100.00;100047.31;4184754;28;20402;-74
2023/01/08 00:41:51;;;;;;;8.43;1.83;;;8.70;99.90;;;7.64;100.00;100039.88;4184662;28;20043;-74
2023/01/08 00:43:52;;;;;;;13.00;1.55;;;8.60;99.90;;;7.58;100.00;100051.81;4184682;28;20463;-74
2023/01/08 00:45:53;;;;;;;8.38;1.50;;;8.50;99.90;;;7.50;100.00;100053.53;4202415;28;20025;-74
2023/01/08 00:47:54;;;;;;;11.48;1.95;;;8.40;99.90;;;7.38;100.00;100054.78;4202624;28;20083;-74
2023/01/08 00:49:55;;;;;;;4.97;0.98;;;8.30;99.90;;;7.31;100.00;100048.50;4202374;28;20049;-74
2023/01/08 00:51:56;;;;;;;8.23;1.13;;;8.30;99.90;;;7.23;100.00;100036.13;4184483;28;20175;-74
2023/01/08 00:53:57;;;;;;;7.45;1.60;;;8.20;99.90;;;7.21;100.00;100048.56;4184303;28;20104;-74
2023/01/08 00:56:07;;;;;;;6.85;1.40;;;8.20;99.90;;;7.14;100.00;100040.47;4184725;28;20039;-74
2023/01/08 00:58:08;;;;;;;9.07;1.30;;;8.10;99.90;;;7.03;100.00;100040.72;4184738;28;20029;-74
2023/01/08 01:00:13;;;;;;;9.13;2.15;;;8.00;99.90;;;7.01;100.00;100044.47;4184418;28;20532;-74
2023/01/08 01:02:14;;;;;;;9.35;1.92;;;7.90;99.90;;;6.95;100.00;100051.13;4202143;28;20024;-74
2023/01/08 01:04:15;;;;;;;10.13;1.02;;;7.90;99.90;;;6.89;100.00;100043.03;4184434;28;20029;-74
2023/01/08 01:06:16;;;;;;;4.75;1.00;;;7.80;99.90;;;6.86;100.00;100043.34;4202199;28;20434;-74
2023/01/08 01:08:17;;;;;;;5.90;0.80;;;7.80;99.90;;;6.84;100.00;100040.06;4202134;28;20116;-74
2023/01/08 01:10:18;;;;;;;6.13;1.00;;;7.80;99.90;;;6.80;100.00;100033.44;4167248;28;20029;-74
2023/01/08 01:12:19;;;;;;;6.95;1.10;;;7.70;99.90;;;6.87;100.00;100030.06;4202074;28;20032;-74
2023/01/08 01:14:20;;;;;;;10.10;1.00;;;7.70;99.90;;;6.86;100.00;100030.22;4184438;28;20021;-74
2023/01/08 01:16:22;;;;;;;5.18;0.90;;;7.70;99.90;;;6.80;100.00;100034.28;4184298;28;20123;-74
2023/01/08 01:18:22;;;;;;;8.40;0.93;;;7.70;99.90;;;6.83;100.00;100027.91;4184175;28;20025;-74
2023/01/08 01:20:24;;;;;;;10.10;1.05;;;7.70;99.90;;;6.83;100.00;100020.03;4202040;28;20510;-74
2023/01/08 01:22:24;;;;;;;7.75;0.80;;;7.70;99.90;;;6.86;100.00;100017.94;4184096;28;20033;-74
2023/01/08 01:24:26;;;;;;;3.47;0.60;;;7.70;99.90;;;6.89;100.00;100019.44;4183918;28;20060;-74
2023/01/08 01:26:28;;;;;;;4.70;0.63;;;7.70;99.90;;;6.85;100.00;100015.47;4201876;28;20017;-74
2023/01/08 01:28:29;;;;;;;6.20;0.93;;;7.70;99.90;;;6.85;100.00;100011.06;4201869;28;20086;-74
2023/01/08 01:30:29;;;;;;;3.83;0.65;;;7.70;99.90;;;6.86;100.00;100009.25;4201881;28;20021;-74
2023/01/08 01:32:30;;;;;;;3.72;0.90;;;7.70;99.90;;;6.83;100.00;100013.00;4183958;28;20028;-74
2023/01/08 01:34:31;;;;;;;6.20;0.93;;;7.70;99.90;;;6.78;100.00;100007.38;4201730;28;20032;-74
2023/01/08 01:36:32;;;;;;;6.50;1.67;;;7.70;99.90;;;6.78;100.00;100001.31;4184098;28;20029;-74
2023/01/08 01:38:33;;;;;;;5.50;1.13;;;7.70;99.90;;;6.76;100.00;99998.00;4184133;28;20029;-74
2023/01/08 01:40:34;;;;;;;8.55;1.58;;;7.70;99.90;;;6.73;100.00;99996.53;4183776;28;20056;-74
2023/01/08 01:42:42;;;;;;;3.28;0.70;;;7.70;99.90;;;6.73;100.00;100004.38;4200986;28;20021;-74
2023/01/08 01:44:45;;;;;;;6.05;0.82;;;7.70;99.90;;;6.75;100.00;99999.00;4171488;28;20029;-74
2023/01/08 01:46:47;;;;;;;8.02;1.15;;;7.70;99.90;;;6.77;100.00;99997.88;4183581;28;20024;-74
2023/01/08 01:48:52;;;;;;;7.78;1.13;;;7.70;99.90;;;6.79;100.00;99995.91;4183922;28;20027;-74
2023/01/08 01:50:53;;;;;;;11.30;1.45;;;7.70;99.90;;;6.78;100.00;99999.50;4183825;28;20100;-74
2023/01/08 01:53:16;;;;;;;6.80;0.82;;;7.70;99.90;;;6.83;100.00;100006.94;4201430;28;20499;-74
2023/01/08 01:55:18;;;;;;;6.18;1.92;;;7.70;99.90;;;6.80;100.00;99999.38;4183869;28;20025;-74
2023/01/08 01:57:19;;;;;;;5.25;1.73;;;7.70;99.90;;;6.82;100.00;100000.88;4201487;28;20033;-74
2023/01/08 01:59:20;;;;;;;5.28;1.27;;;7.70;99.90;;;6.80;100.00;100007.22;4167105;28;20103;-74
2023/01/08 02:01:22;;;;;;;8.23;1.23;;;7.70;99.90;;;6.76;100.00;99992.78;4183863;28;20033;-74
2023/01/08 02:03:27;;;;;;;10.63;2.08;;;7.70;99.90;;;6.75;100.00;99999.00;4183756;28;20072;-74
2023/01/08 02:06:12;;;;;;;11.68;1.40;;;7.70;99.90;;;6.75;100.00;100007.66;4183627;28;20044;-74
2023/01/08 02:08:31;;;;;;;9.88;1.15;;;7.70;99.90;;;6.71;100.00;100005.50;4199014;28;20037;-74
2023/01/08 02:10:50;;;;;;;14.43;1.90;;;7.60;99.90;;;6.74;100.00;99995.56;4184931;28;20155;-74
2023/01/08 02:13:00;;;;;;;9.43;1.63;;;7.60;99.90;;;6.85;100.00;100002.34;4184921;28;20531;-74
2023/01/08 02:15:26;;;;;;;12.82;2.60;;;7.70;99.90;;;6.78;100.00;100001.31;4184068;28;20028;-74
2023/01/08 02:18:05;;;;;;;10.80;1.60;;;7.70;99.90;;;6.73;100.00;99996.53;4183619;28;20111;-74
2023/01/08 02:20:26;;;;;;;11.65;1.48;;;7.70;99.90;;;6.88;100.00;100002.88;4169321;28;20132;-74
2023/01/08 02:22:38;;;;;;;11.10;1.85;;;7.70;99.90;;;6.89;100.00;99999.31;4201436;28;20024;-74
2023/01/08 02:25:01;;;;;;;12.43;2.10;;;7.70;99.90;;;6.97;100.00;100009.03;4200835;28;20063;-74
2023/01/08 02:27:05;;;;;;;13.45;2.25;;;7.80;99.90;;;6.94;100.00;99998.84;4167581;28;20112;-74
2023/01/08 02:29:17;;;;;;;16.65;1.90;;;7.80;99.90;;;6.92;100.00;99996.38;4201370;28;20028;-74
2023/01/08 02:31:22;;;;;;;14.13;2.22;;;7.80;99.90;;;6.94;100.00;99998.84;4167342;28;20026;-74
2023/01/08 02:33:25;;;;;;;19.48;2.63;;;7.80;99.90;;;6.93;100.00;99989.34;4183721;28;20035;-74
2023/01/08 02:35:44;;;;;;;17.83;3.28;;;7.80;99.90;;;7.04;100.00;99983.84;4183908;28;20059;-74
2023/01/08 02:37:45;;;;;;;17.92;2.67;;;7.90;99.90;;;7.07;100.00;99994.03;4183739;28;20041;-74
2023/01/08 02:39:46;;;;;;;6.97;1.52;;;7.90;99.90;;;7.03;100.00;99990.88;4201096;28;20020;-74
2023/01/08 02:42:09;;;;;;;13.98;2.58;;;7.90;99.90;;;6.98;100.00;99995.78;4201300;28;20158;-74
2023/01/08 02:44:16;;;;;;;18.40;2.60;;;7.90;99.90;;;7.07;100.00;99994.03;4163553;28;20116;-74
2023/01/08 02:46:25;;;;;;;9.20;1.95;;;7.90;99.90;;;7.10;100.00;99993.75;4171402;28;20025;-74
2023/01/08 02:48:44;;;;;;;8.77;1.60;;;7.90;99.90;;;7.06;100.00;99995.00;4184076;28;20045;-74
2023/01/08 02:51:26;;;;;;;11.80;2.00;;;7.90;99.90;;;7.01;100.00;99998.09;4184034;28;20029;-74
2023/01/08 02:53:49;;;;;;;10.82;2.28;;;7.90;99.90;;;6.93;100.00;99992.75;4172968;28;20041;-74
2023/01/08 02:55:58;;;;;;;17.67;3.05;;;7.90;99.90;;;6.92;100.00;99995.56;4169967;28;20040;-74
2023/01/08 02:58:00;;;;;;;15.82;3.08;;;7.80;99.90;;;6.92;100.00;99995.56;4170049;28;20037;-74
2023/01/08 03:00:02;;;;;;;12.13;2.58;;;7.80;99.90;;;6.98;100.00;99987.09;4169918;28;20033;-74
2023/01/08 03:02:04;;;;;;;15.75;2.40;;;7.80;99.90;;;6.96;100.00;99987.22;4170770;28;20093;-74
2023/01/08 03:04:25;;;;;;;9.55;1.90;;;7.80;99.90;;;6.86;100.00;99977.81;4169991;28;20168;-74
2023/01/08 03:06:27;;;;;;;11.30;2.25;;;7.80;99.90;;;6.87;100.00;99982.88;4171092;28;20085;-74
2023/01/08 03:08:30;;;;;;;16.70;2.97;;;7.70;99.90;;;6.82;100.00;99977.28;4169826;28;20021;-74
2023/01/08 03:10:33;;;;;;;13.65;3.33;;;7.70;99.90;;;6.90;100.00;99987.03;4169537;28;20083;-74
2023/01/08 03:13:14;;;;;;;14.20;2.28;;;7.70;99.90;;;6.93;100.00;99987.53;4158635;28;20032;-74
2023/01/08 03:15:24;;;;;;;13.82;1.77;;;7.70;99.90;;;6.88;100.00;99973.22;4167370;28;20041;-74
2023/01/08 03:17:56;;;;;;;13.80;2.30;;;7.80;99.90;;;6.87;100.00;99980.25;4169815;28;20040;-74
2023/01/08 03:20:07;;;;;;;13.18;2.90;;;7.80;99.90;;;6.88;100.00;99988.94;4167550;28;20045;-74
2023/01/08 03:22:13;;;;;;;11.45;1.80;;;7.80;99.90;;;6.87;100.00;99988.13;4171275;28;20123;-74
2023/01/08 03:24:28;;;;;;;16.10;2.05;;;7.70;99.90;;;6.82;100.00;99984.31;4177309;28;20048;-74
2023/01/08 03:26:31;;;;;;;11.80;2.13;;;7.80;99.90;;;6.77;100.00;99986.56;4169601;28;20025;-74
2023/01/08 03:28:45;;;;;;;13.45;2.30;;;7.70;99.90;;;6.80;100.00;99989.72;4169711;28;20071;-74
2023/01/08 03:30:49;;;;;;;8.60;2.08;;;7.70;99.90;;;6.74;100.00;99981.63;4169684;28;20104;-74
2023/01/08 03:32:52;;;;;;;5.93;1.38;;;7.70;99.90;;;6.70;100.00;99973.22;4176431;28;20029;-74
2023/01/08 03:34:55;;;;;;;11.68;2.03;;;7.60;99.90;;;6.78;100.00;99978.53;4170011;28;20521;-74
2023/01/08 03:37:01;;;;;;;8.98;1.30;;;7.60;99.90;;;6.64;100.00;99977.28;4169413;28;20113;-74
2023/01/08 03:39:15;;;;;;;8.95;1.75;;;7.60;99.90;;;6.63;100.00;99977.44;4169238;28;20118;-74
2023/01/08 03:41:21;;;;;;;6.90;2.30;;;7.60;99.90;;;6.62;100.00;99981.84;4153439;28;20068;-74
2023/01/08 03:43:22;;;;;;;11.23;2.10;;;7.50;99.90;;;6.54;100.00;99983.56;4176267;28;20045;-74
2023/01/08 03:45:26;;;;;;;11.95;1.85;;;7.50;99.90;;;6.55;100.00;99979.97;4169226;28;20120;-74
2023/01/08 03:47:30;;;;;;;13.63;1.50;;;7.50;99.90;;;6.53;100.00;99988.00;4169151;28;20022;-74
2023/01/08 03:49:32;;;;;;;;;;;7.50;99.90;;;6.41;100.00;99989.16;4172247;28;20049;-74
2023/01/08 03:51:41;;;;;;;9.32;1.50;;;7.40;99.90;;;6.41;100.00;99983.94;4175790;28;19909;-74
2023/01/08 03:53:42;;;;;;;7.93;2.28;;;7.40;99.90;;;6.41;100.00;99985.72;4171210;28;20025;-74
2023/01/08 03:55:43;;;;;;;11.88;1.40;;;7.30;99.90;;;6.41;100.00;99988.34;4201974;28;20072;-74
2023/01/08 03:57:44;;;;;;;13.10;1.65;;;7.40;99.90;;;6.39;100.00;99988.47;4170400;28;20030;-74
2023/01/08 03:59:46;;;;;;;11.95;1.98;;;7.40;99.90;;;6.35;100.00;99979.28;4170320;28;20504;-74
2023/01/08 04:01:46;;;;;;;10.68;1.55;;;7.30;99.90;;;6.32;100.00;99976.97;4173209;28;20484;-74
2023/01/08 04:03:47;;;;;;;10.65;1.33;;;7.30;99.90;;;6.31;100.00;99979.72;4172069;28;20118;-74
2023/01/08 04:05:48;;;;;;;12.38;2.13;;;7.30;99.90;;;6.27;100.00;99971.34;4169402;28;20029;-74
2023/01/08 04:07:49;;;;;;;12.85;2.38;;;7.30;99.90;;;6.26;100.00;99982.78;4170159;28;20034;-74
2023/01/08 04:09:50;;;;;;;13.32;1.92;;;7.20;99.90;;;6.19;100.00;99980.88;4169872;28;20547;-74
2023/01/08 04:11:51;;;;;;;11.90;2.20;;;7.20;99.90;;;6.13;100.00;99982.28;4168804;28;20025;-74
2023/01/08 04:13:52;;;;;;;11.27;1.83;;;7.10;99.90;;;6.09;100.00;99975.72;4168829;28;20406;-74
2023/01/08 04:15:53;;;;;;;14.07;2.40;;;7.10;99.90;;;6.05;100.00;99977.81;4170069;28;20034;-74
2023/01/08 04:17:54;;;;;;;11.70;1.30;;;7.00;99.90;;;6.05;100.00;99979.59;4169979;28;20028;-74
2023/01/08 04:19:55;;;;;;;17.65;2.15;;;7.00;99.90;;;6.03;100.00;99977.09;4168657;28;20084;-74
2023/01/08 04:21:55;;;;;;;14.73;2.53;;;7.00;99.90;;;6.07;100.00;99982.88;4169986;28;20087;-74
2023/01/08 04:23:56;;;;;;;12.90;1.70;;;7.00;99.90;;;6.01;100.00;99965.97;4169655;28;20393;-74
2023/01/08 04:25:57;;;;;;;16.67;2.30;;;7.00;99.90;;;6.06;100.00;99971.56;4168555;28;20049;-74
2023/01/08 04:27:58;;;;;;;14.57;2.10;;;7.00;99.90;;;6.04;100.00;99968.28;4152135;28;20026;-74
2023/01/08 04:29:59;;;;;;;14.65;2.58;;;7.00;99.90;;;6.04;100.00;99967.47;4174355;28;20140;-74
2023/01/08 04:32:00;;;;;;;14.63;2.92;;;7.00;99.90;;;6.05;100.00;99969.94;4168642;28;20052;-74
2023/01/08 04:34:01;;;;;;;15.15;2.22;;;7.00;99.90;;;6.10;100.00;99972.13;4168540;28;20424;-74
2023/01/08 04:36:04;;;;;;;19.90;3.00;;;7.00;99.90;;;6.10;100.00;99966.88;4169676;28;20041;-74
2023/01/08 04:38:04;;;;;;;14.07;2.40;;;7.10;99.90;;;6.17;100.00;99973.19;4168369;28;20536;-74
2023/01/08 04:40:06;;;;;;;14.48;2.35;;;7.10;99.90;;;6.25;100.00;99967.19;4168305;28;20032;-74
2023/01/08 04:42:07;;;;;;;12.93;2.80;;;7.20;99.90;;;6.31;100.00;99961.38;4169631;28;20026;-74
2023/01/08 04:44:08;;;;;;;16.52;2.65;;;7.20;99.90;;;6.33;100.00;99957.63;4169369;28;20029;-74
2023/01/08 04:46:09;;;;;;;18.45;4.55;;;7.30;99.90;;;6.36;100.00;99961.78;4167962;28;20022;-74
2023/01/08 04:48:10;;;;;;;20.92;3.95;;;7.30;99.90;;;6.37;100.00;99959.00;4168394;28;20515;-74
2023/01/08 04:50:11;;;;;;;16.92;2.50;;;7.30;99.90;;;6.41;100.00;99954.28;4170745;28;20052;-74
2023/01/08 04:52:12;;;;;;;15.82;2.63;;;7.30;99.90;;;6.41;100.00;99959.53;4200845;28;20172;-74
2023/01/08 04:54:13;;;;;;;15.85;3.00;;;7.30;99.90;;;6.42;100.00;99956.75;4203081;28;20031;-74
2023/01/08 04:56:14;;;;;;;19.45;3.45;;;7.40;99.90;;;6.39;100.00;99953.63;4202468;28;20093;-74
2023/01/08 04:58:15;;;;;;;14.30;2.30;;;7.30;99.90;;;6.37;100.00;99940.66;4202321;28;20025;-74
2023/01/08 05:00:16;;;;;;;21.05;3.53;;;7.30;99.90;;;6.41;100.00;99938.56;4184574;28;20024;-74
2023/01/08 05:02:17;;;;;;;14.43;2.67;;;7.30;99.90;;;6.43;100.00;99953.16;4201648;28;20028;-74
2023/01/08 05:04:18;;;;;;;27.48;3.83;;;7.30;99.90;;;6.36;100.00;99944.25;4202254;28;20048;-74
2023/01/08 05:06:19;;;;;;;18.63;3.08;;;7.30;99.90;;;6.41;100.00;99946.44;4184542;28;20040;-74
2023/01/08 05:08:20;;;;;;;27.13;3.42;;;7.40;99.90;;;6.43;100.00;99947.94;4184469;28;20021;-74
2023/01/08 05:10:21;;;;;;;17.85;2.70;;;7.30;99.90;;;6.42;100.00;99938.41;4201832;28;20035;-74
2023/01/08 05:12:22;;;;;;;15.90;2.85;;;7.30;99.90;;;6.42;100.00;99935.00;4202198;28;20028;-74
2023/01/08 05:14:23;;;;;;;26.42;3.75;;;7.40;99.90;;;6.40;100.00;99932.50;4183996;28;20021;-74
2023/01/08 05:16:24;;;;;;;16.90;3.47;;;7.30;99.90;;;6.39;100.00;99924.81;4184334;28;20060;-74
2023/01/08 05:18:25;;;;;;;21.77;4.20;;;7.30;99.90;;;6.39;100.00;99920.38;4202135;28;20120;-74
2023/01/08 05:20:27;;;;;;;15.43;2.88;;;7.30;99.90;;;6.39;100.00;99914.34;4184305;28;20108;-74
2023/01/08 05:22:28;;;;;;;20.15;3.75;;;7.30;99.90;;;6.42;100.00;99917.44;4202001;28;20044;-74
2023/01/08 05:24:28;;;;;;;16.85;3.45;;;7.30;99.90;;;6.46;100.00;99920.59;4183964;28;20021;-74
2023/01/08 05:26:29;;;;;;;17.02;3.08;;;7.30;99.90;;;6.44;100.00;99912.06;4183982;28;20060;-74
2023/01/08 05:28:31;;;;;;;21.13;2.67;;;7.30;99.90;;;6.41;100.00;99905.34;4202026;28;20129;-74
2023/01/08 05:30:32;;;;;;;19.10;2.92;;;7.30;99.90;;;6.42;100.00;99909.59;4184132;28;20052;-74
2023/01/08 05:32:33;;;;;;;18.77;3.35;;;7.40;99.90;;;6.48;100.00;99918.69;4201867;28;20048;-74
2023/01/08 05:34:34;;;;;;;13.40;3.03;;;7.40;99.90;;;6.38;100.00;99905.66;4201678;28;20068;-74
2023/01/08 05:36:35;;;;;;;17.83;3.60;;;7.40;99.90;;;6.34;100.00;99904.28;4201560;28;20507;-74
2023/01/08 05:38:36;;;;;;;16.25;3.92;;;7.30;99.90;;;6.34;100.00;99901.66;4183822;28;20068;-74
2023/01/08 05:40:37;;;;;;;12.55;2.78;;;7.40;99.90;;;6.29;100.00;99890.81;4177702;28;20024;-74
2023/01/08 05:42:38;;;;;;;21.08;2.55;;;7.30;99.90;;;6.33;100.00;99900.00;4179415;28;20033;-74
2023/01/08 05:44:39;;;;;;;17.67;3.58;;;7.30;99.90;;;6.28;100.00;99897.03;4181580;28;20396;-74
2023/01/08 05:46:40;;;;;;;14.63;2.75;;;7.40;99.90;;;6.34;100.00;99898.22;4200446;28;20074;-74
2023/01/08 05:48:41;;;;;;;15.60;3.97;;;7.40;99.90;;;6.39;100.00;99899.41;4201672;28;20028;-74
2023/01/08 05:50:42;;;;;;;18.48;2.83;;;7.40;99.90;;;6.36;100.00;99898.91;4201469;28;20028;-74
2023/01/08 05:52:43;;;;;;;19.88;3.15;;;7.40;99.90;;;6.31;100.00;99895.91;4201287;28;20182;-74
2023/01/08 05:54:45;;;;;;;19.17;3.17;;;7.30;99.90;;;6.28;100.00;99891.78;4183755;28;20059;-74
2023/01/08 05:56:45;;;;;;;15.30;3.22;;;7.30;99.90;;;6.32;100.00;99901.00;4183245;28;20487;-74
2023/01/08 05:58:46;;;;;;;15.13;3.03;;;7.30;99.90;;;6.26;100.00;99892.91;4183755;28;20063;-74
2023/01/08 06:00:47;;;;;;;17.48;3.03;;;7.30;99.90;;;6.27;100.00;99899.81;4201583;28;20024;-74
2023/01/08 06:02:48;;;;;;;22.10;3.92;;;7.30;99.90;;;6.28;100.00;99885.72;4201550;28;20028;-74
2023/01/08 06:04:49;;;;;;;28.20;3.47;;;7.30;99.90;;;6.25;100.00;99881.59;4183616;28;20029;-74
2023/01/08 06:06:50;;;;;;;17.67;3.10;;;7.30;99.90;;;6.24;100.00;99882.59;4201443;28;20056;-74
2023/01/08 06:08:51;;;;;;;20.17;2.88;;;7.30;99.90;;;6.25;100.00;99876.38;4201204;28;20479;-74
2023/01/08 06:10:52;;;;;;;21.23;3.08;;;7.30;99.90;;;6.41;100.00;99881.78;4201174;28;20192;-74
2023/01/08 06:12:53;;;;;;;20.38;3.58;;;7.40;99.90;;;6.51;100.00;99874.63;4183666;28;20071;-74
2023/01/08 06:14:54;;;;;;;25.00;2.92;;;7.50;99.90;;;6.72;100.00;99891.84;4183602;28;20036;-74
2023/01/08 06:16:55;;;;;;;22.65;3.42;;;7.60;99.90;;;6.87;100.00;99893.75;4200950;28;20033;-74
2023/01/08 06:18:56;;;;;;;18.15;3.55;;;7.70;99.90;;;6.92;100.00;99888.88;4201426;28;20037;-74
2023/01/08 06:20:57;;;;;;;18.25;3.08;;;7.80;99.90;;;6.92;100.00;99883.66;4201383;28;20075;-74
2023/01/08 06:22:57;;;;;;;17.52;3.03;;;7.90;99.90;;;6.92;100.00;99877.56;4183524;28;20029;-74
2023/01/08 06:24:58;;;;;;;18.15;3.15;;;7.80;99.90;;;6.89;100.00;99867.41;4200607;28;20025;-74
2023/01/08 06:26:59;;;;;;;17.35;2.60;;;7.80;99.90;;;6.85;100.00;99860.81;4201354;28;20541;-73
2023/01/08 06:29:00;;;;;;;14.27;3.35;;;7.80;99.90;;;6.78;100.00;99857.16;4185809;28;20025;-74
2023/01/08 06:31:02;;;;;;;17.25;2.78;;;7.70;99.90;;;6.87;100.00;99854.44;4186845;28;20029;-74
2023/01/08 06:33:03;;;;;;;12.50;2.10;;;7.80;99.90;;;6.84;100.00;99861.81;4186838;28;20025;-74
2023/01/08 06:35:05;;;;;;;17.02;2.40;;;7.80;99.90;;;6.83;100.00;99855.72;4186774;28;20064;-74
2023/01/08 06:37:06;;;;;;;16.73;2.67;;;7.80;99.90;;;6.98;100.00;99853.38;4204576;28;20051;-74
2023/01/08 06:39:07;;;;;;;15.80;2.55;;;7.90;99.90;;;6.99;100.00;99849.78;4204032;28;20032;-74
2023/01/08 06:41:10;;;;;;;15.35;3.08;;;8.00;99.90;;;7.05;100.00;99854.38;4186636;28;20025;-74
2023/01/08 06:43:11;;;;;;;14.63;2.67;;;8.00;99.90;;;7.09;100.00;99851.31;4170283;28;20041;-74
2023/01/08 06:45:12;;;;;;;23.02;3.42;;;8.10;99.90;;;7.08;100.00;99854.06;4189002;28;20079;-74
2023/01/08 06:47:13;;;;;;;20.65;2.55;;;8.10;99.90;;;7.10;100.00;99852.97;4203061;28;20028;-74
2023/01/08 06:49:14;;;;;;;14.13;2.67;;;8.10;99.90;;;6.97;100.00;99847.28;4204208;28;20021;-74
2023/01/08 06:51:15;;;;;;;15.80;2.10;;;8.00;99.90;;;6.90;100.00;99850.69;4204320;28;20029;-74
2023/01/08 06:53:16;;;;;;;14.27;2.50;;;7.90;99.90;;;6.85;100.00;99850.31;4185745;28;20037;-74
2023/01/08 06:55:17;;;;;;;11.85;2.40;;;7.80;99.90;;;6.75;100.00;99837.31;4186166;28;20025;-74
2023/01/08 06:57:17;;;;;;;14.23;3.15;;;7.70;99.90;;;6.63;100.00;99834.13;4186370;28;20524;-74
2023/01/08 06:59:18;;;;;;;12.77;2.05;;;7.60;99.90;;;6.55;100.00;99836.69;4186551;28;20516;-74
2023/01/08 07:01:21;;;;;;;17.45;2.63;;;7.50;99.90;;;6.49;100.00;99836.47;4204169;28;20032;-73
2023/01/08 07:03:22;;;;;;;14.93;3.05;;;7.50;99.90;;;6.40;100.00;99827.72;4186296;28;20025;-74
2023/01/08 07:05:23;;;;;;;20.42;4.15;;;7.40;99.90;;;6.34;100.00;99830.94;4186144;28;20036;-74
2023/01/08 07:07:24;;;;;;;18.30;2.38;;;7.30;99.90;;;6.34;100.00;99827.50;4185986;28;20082;-74
2023/01/08 07:09:25;;;;;;;15.07;3.38;;;7.30;99.90;;;6.39;100.00;99822.66;4186021;28;20029;-74
2023/01/08 07:11:26;;;;;;;21.63;2.97;;;7.30;99.90;;;6.51;100.00;99819.63;4186303;28;20024;-74
2023/01/08 07:13:27;;;;;;;23.35;4.90;;;7.40;99.90;;;6.52;100.00;99823.06;4203605;28;20029;-74
2023/01/08 07:15:27;;;;;;;23.70;2.45;;;7.40;99.90;;;6.52;100.00;99826.50;4204028;28;20024;-74
2023/01/08 07:17:30;;;;;;;12.50;2.97;;;7.50;99.90;;;6.51;100.00;99831.91;4186233;28;20094;-74
2023/01/08 07:19:32;;;;;;;22.63;2.42;;;7.50;99.90;;;6.51;100.00;99832.72;4186334;28;20606;-74
2023/01/08 07:21:33;;;;;;;15.10;3.00;;;7.50;99.90;;;6.50;100.00;99825.84;4185985;28;20037;-74
2023/01/08 07:23:35;;;;;;;12.90;2.45;;;7.50;99.90;;;6.56;100.00;99824.41;4203422;28;20028;-74
2023/01/08 07:25:36;;;;;;;16.02;2.50;;;7.50;99.90;;;6.53;100.00;99822.09;4169274;28;20497;-74
2023/01/08 07:27:38;;;;;;;14.60;3.25;;;7.50;99.90;;;6.45;100.00;99807.13;4185717;28;20112;-74
2023/01/08 07:29:39;;;;;;;18.83;3.13;;;7.50;99.90;;;6.45;100.00;99820.22;4209259;28;20498;-74
2023/01/08 07:31:39;;;;;;;15.73;3.05;;;7.50;99.90;;;6.44;100.00;99812.53;4203565;28;20036;-74
2023/01/08 07:33:40;;;;;;;14.80;2.63;;;7.40;99.90;;;6.45;100.00;99806.34;4203729;28;20437;-74
2023/01/08 07:35:41;;;;;;;11.82;1.70;;;7.40;99.90;;;6.49;100.00;99821.56;4169217;28;20039;-74
2023/01/08 07:37:42;;;;;;;15.00;2.30;;;7.40;99.90;;;6.54;100.00;99813.28;4185363;28;20075;-74
2023/01/08 07:39:43;;;;;;;15.40;1.77;;;7.40;99.90;;;6.47;100.00;99807.00;4184410;28;20082;-74
2023/01/08 07:41:44;;;;;;;16.40;1.98;;;7.40;99.90;;;6.51;100.00;99808.34;4203617;28;20082;-74
2023/01/08 07:43:48;;;;;;;13.50;2.08;;;7.40;99.90;;;6.44;100.00;99791.56;4169042;28;20032;-74
2023/01/08 07:45:49;;;;;;;17.58;2.20;;;7.40;99.90;;;6.60;100.00;99799.56;4203336;28;20038;-74
2023/01/08 07:47:50;;;;;;;11.52;2.30;;;7.50;99.90;;;6.60;100.00;99802.19;4202026;28;20048;-74
2023/01/08 07:49:51;;;;;;;13.60;3.35;;;7.50;99.90;;;6.66;100.00;99791.06;4203490;28;20060;-74
2023/01/08 07:51:51;;;;;;;18.23;2.17;;;7.60;99.90;;;6.66;100.00;99785.81;4185323;28;20044;-74
2023/01/08 07:53:55;;;;;;;21.05;2.65;;;7.60;99.90;;;6.78;100.00;99795.06;4185439;28;20025;-74
2023/01/08 07:56:03;;;;;;;16.33;2.83;;;7.70;99.90;;;6.85;100.00;99784.78;4185401;28;20028;-74
2023/01/08 07:58:12;;;;;;;11.30;2.10;;;7.70;99.90;;;6.86;100.00;99775.97;4203408;28;20032;-74
2023/01/08 08:00:13;;;;;;;13.60;1.92;;;7.80;99.90;;;7.00;100.00;99780.59;4203078;28;20063;-74
2023/01/08 08:02:14;;;;;;;16.33;2.35;;;7.90;99.90;;;7.05;100.00;99786.19;4184301;28;20037;-74
2023/01/08 08:04:15;;;;;;;20.27;2.78;;;7.90;99.90;;;7.10;100.00;99776.91;4203112;28;20047;-74
2023/01/08 08:06:16;;;;;;;16.15;2.10;;;8.00;99.90;;;7.17;100.00;99777.91;4185489;28;20508;-74
2023/01/08 08:08:18;;;;;;;16.25;2.20;;;8.10;99.90;;;7.16;100.00;99778.91;4185434;28;20025;-74
2023/01/08 08:10:19;;;;;;;15.27;3.33;;;8.00;99.90;;;7.09;100.00;99767.38;4202801;28;20112;-74
2023/01/08 08:12:20;;;;;;;11.35;2.13;;;8.10;99.90;;;7.16;100.00;99768.41;4168753;28;20021;-74
2023/01/08 08:14:21;;;;;;;19.98;2.40;;;8.00;99.90;;;7.12;100.00;99771.50;4203151;28;20024;-74
2023/01/08 08:16:21;;;;;;;13.55;2.38;;;8.00;99.90;;;7.14;100.00;99754.63;4203041;28;20388;-74
2023/01/08 08:18:22;;;;;;;10.63;2.05;;;8.10;99.90;;;7.16;100.00;99767.59;4184926;28;20033;-74
2023/01/08 08:20:24;;;;;;;14.25;3.30;;;8.10;99.90;;;7.20;100.00;99764.47;4185297;28;20049;-74
2023/01/08 08:22:25;;;;;;;16.15;3.72;;;8.10;99.90;;;7.23;100.00;99763.34;4185264;28;20033;-74
2023/01/08 08:24:26;;;;;;;11.88;2.22;;;8.10;99.90;;;7.32;100.00;99759.75;4184827;28;20021;-74
2023/01/08 08:26:27;;;;;;;13.73;2.35;;;8.20;99.90;;;7.31;100.00;99754.69;4202690;28;20400;-74
2023/01/08 08:28:27;;;;;;;16.23;2.83;;;8.20;99.90;;;7.32;100.00;99756.34;4185302;28;20024;-74
2023/01/08 08:30:32;;;;;;;17.85;3.05;;;8.20;99.90;;;7.32;100.00;99757.13;4202914;28;20028;-74
2023/01/08 08:32:33;;;;;;;20.67;3.05;;;8.20;99.90;;;7.32;100.00;99753.72;4185111;28;20021;-74
2023/01/08 08:34:34;;;;;;;16.73;3.17;;;8.20;99.90;;;7.32;100.00;99756.34;4202622;28;20029;-74
2023/01/08 08:36:34;;;;;;;17.58;2.97;;;8.20;99.90;;;7.31;100.00;99758.13;4202759;28;20031;-74
2023/01/08 08:38:37;;;;;;;21.17;3.05;;;8.20;99.90;;;7.29;100.00;99752.19;4202584;28;20029;-74
2023/01/08 08:40:37;;;;;;;12.63;2.90;;;8.20;99.90;;;7.36;100.00;99752.41;4184985;28;20028;-74